Time;durP1;ratioP1;P1;durP2;ratioP2;P2;SDS_P1;SDS_P2;PMS_P1;PMS_P2;Temp;Humidity;BMP_temperature;BMP_pressure;BME280_temperature;BME280_humidity;BME280_pressure;Samples;Min_cycle;Max_cycle;Signal;HPM_P1;HPM_P2
2023/09/21 00:01:57;;;;;;;9.43;4.35;;;;;;;23.93;49.73;99779.06;4841685;29;20483;-42
2023/09/21 00:04:23;;;;;;;5.82;4.10;;;;;;;24.03;49.01;99774.56;4841692;29;20022;-39
2023/09/21 00:06:49;;;;;;;6.72;4.32;;;;;;;23.95;48.74;99770.59;4842395;29;20041;-42
2023/09/21 00:09:14;;;;;;;6.53;4.10;;;;;;;23.89;49.01;99774.47;4842235;29;20491;-41
2023/09/21 00:11:40;;;;;;;6.65;4.22;;;;;;;23.84;48.22;99788.94;4841910;29;20022;-39
2023/09/21 00:14:05;;;;;;;5.90;4.25;;;;;;;23.60;47.01;99783.50;4841566;29;20030;-42
2023/09/21 00:16:31;;;;;;;7.35;3.83;;;;;;;23.26;47.95;99789.00;4842148;29;20388;-39
2023/09/21 00:18:57;;;;;;;9.70;4.20;;;;;;;23.12;48.24;99784.25;4842042;29;20021;-41
2023/09/21 00:21:22;;;;;;;5.85;3.75;;;;;;;23.32;47.97;99780.53;4842005;29;20037;-41
2023/09/21 00:23:48;;;;;;;5.75;4.30;;;;;;;23.20;48.23;99778.19;4842015;29;20026;-40
2023/09/21 00:26:14;;;;;;;8.88;3.97;;;;;;;23.18;48.15;99780.38;4841818;29;20064;-40
2023/09/21 00:28:41;;;;;;;10.10;4.60;;;;;;;22.79;49.53;99783.13;4841301;29;20586;-40
2023/09/21 00:31:06;;;;;;;8.63;4.13;;;;;;;22.74;49.71;99772.34;4841338;29;20037;-40
2023/09/21 00:33:33;;;;;;;9.07;4.18;;;;;;;22.82;49.75;99771.72;4841344;29;20034;-39
2023/09/21 00:35:58;;;;;;;6.65;4.32;;;;;;;22.71;49.91;99773.72;4841487;29;20062;-42
2023/09/21 00:38:25;;;;;;;7.88;4.30;;;;;;;22.48;50.69;99780.66;4841397;29;20018;-40
2023/09/21 00:40:56;;;;;;;8.82;4.68;;;;;;;22.31;51.57;99775.63;4841350;29;20029;-41
2023/09/21 00:43:24;;;;;;;7.65;4.05;;;;;;;22.22;51.90;99783.50;4841350;29;20034;-40
2023/09/21 00:45:55;;;;;;;7.37;4.43;;;;;;;22.40;51.51;99773.94;4841460;29;20416;-40
2023/09/21 00:48:25;;;;;;;5.75;4.15;;;;;;;22.55;50.65;99770.31;4841051;29;20030;-41
2023/09/21 00:50:54;;;;;;;8.25;4.38;;;;;;;22.48;50.70;99779.84;4841239;29;20033;-42
2023/09/21 00:53:28;;;;;;;8.30;4.65;;;;;;;22.55;50.58;99786.59;4841007;29;20037;-42
2023/09/21 00:56:02;;;;;;;6.90;4.00;;;;;;;22.42;50.84;99768.25;4840433;29;20086;-42
2023/09/21 00:58:31;;;;;;;8.00;4.63;;;;;;;22.54;50.45;99779.56;4840705;29;20026;-40
2023/09/21 01:00:59;;;;;;;9.10;4.85;;;;;;;22.54;50.37;99773.31;4840752;29;20074;-40
2023/09/21 01:03:27;;;;;;;8.35;4.32;;;;;;;22.44;50.94;99774.19;4840944;29;20042;-40
2023/09/21 01:05:53;;;;;;;8.48;4.00;;;;;;;22.45;50.69;99762.25;4840650;29;20404;-40
2023/09/21 01:08:28;;;;;;;7.28;4.20;;;;;;;22.51;50.80;99771.97;4840587;29;20512;-43
2023/09/21 01:10:54;;;;;;;8.35;4.10;;;;;;;22.57;50.77;99773.56;4839480;29;20590;-41
2023/09/21 01:13:20;;;;;;;8.32;4.30;;;;;;;22.55;50.92;99773.03;4840326;29;20030;-42
2023/09/21 01:15:59;;;;;;;7.50;4.13;;;;;;;22.58;50.90;99775.19;4840892;29;20024;-42
2023/09/21 01:18:24;;;;;;;7.93;4.22;;;;;;;22.58;51.06;99774.34;4841312;29;20022;-42
2023/09/21 01:20:50;;;;;;;8.48;4.15;;;;;;;22.66;51.19;99781.91;4847109;29;20112;-43
2023/09/21 01:23:19;;;;;;;5.88;4.25;;;;;;;22.64;51.50;99779.47;4851866;29;20117;-42
2023/09/21 01:25:49;;;;;;;8.25;4.00;;;;;;;22.62;50.99;99780.84;4851508;29;20057;-43
2023/09/21 01:28:18;;;;;;;8.77;4.20;;;;;;;22.62;51.43;99778.16;4852742;29;20070;-46
2023/09/21 01:30:44;;;;;;;7.20;4.20;;;;;;;22.68;50.96;99787.84;4850213;29;20026;-44
2023/09/21 01:33:11;;;;;;;5.43;3.72;;;;;;;22.45;51.25;99779.34;4853504;29;20398;-45
2023/09/21 01:35:40;;;;;;;7.45;3.83;;;;;;;22.51;51.23;99774.69;4853780;29;20025;-45
2023/09/21 01:38:06;;;;;;;6.45;4.03;;;;;;;22.45;51.65;99770.41;4848619;29;20055;-46
2023/09/21 01:40:36;;;;;;;6.10;4.30;;;;;;;22.21;52.14;99773.75;4853025;29;20400;-42
2023/09/21 01:43:03;;;;;;;8.07;4.80;;;;;;;21.99;52.78;99773.31;4854407;29;20033;-47
2023/09/21 01:45:29;;;;;;;5.32;3.92;;;;;;;22.05;52.77;99775.75;4853304;29;20538;-45
2023/09/21 01:47:54;;;;;;;7.68;4.03;;;;;;;22.04;53.07;99778.72;4850075;29;20125;-41
2023/09/21 01:50:21;;;;;;;6.45;4.30;;;;;;;22.07;52.98;99780.88;4848655;29;20030;-43
2023/09/21 01:52:46;;;;;;;5.28;4.03;;;;;;;21.91;53.29;99776.63;4853808;29;20060;-42
2023/09/21 01:55:12;;;;;;;6.45;3.95;;;;;;;21.99;53.12;99779.56;4851028;29;20053;-43
2023/09/21 01:57:38;;;;;;;7.53;4.10;;;;;;;22.13;52.86;99773.53;4848835;29;20394;-45
2023/09/21 02:00:27;;;;;;;8.25;4.30;;;;;;;22.24;52.70;99778.63;4858683;29;20084;-46
2023/09/21 02:02:54;;;;;;;6.53;4.05;;;;;;;21.85;53.71;99771.22;4858710;29;20022;-45
2023/09/21 02:05:19;;;;;;;7.32;4.25;;;;;;;22.02;53.35;99768.16;4858784;29;20074;-43
2023/09/21 02:07:48;;;;;;;5.78;4.00;;;;;;;21.84;53.61;99763.38;4858637;29;20034;-47
2023/09/21 02:10:15;;;;;;;7.30;4.40;;;;;;;21.88;53.54;99769.06;4858877;29;20030;-49
2023/09/21 02:12:53;;;;;;;7.57;4.20;;;;;;;22.00;53.34;99761.41;4858243;29;20043;-47
2023/09/21 02:15:18;;;;;;;6.13;3.85;;;;;;;21.90;53.49;99761.47;4858011;29;20444;-44
2023/09/21 02:17:45;;;;;;;9.35;4.32;;;;;;;21.93;53.30;99763.59;4858252;29;20108;-45
2023/09/21 02:20:14;;;;;;;10.15;4.47;;;;;;;21.82;53.88;99757.44;4858149;29;20032;-45
2023/09/21 02:22:53;;;;;;;5.07;4.05;;;;;;;21.88;53.94;99758.22;4858384;29;20097;-44
2023/09/21 02:25:19;;;;;;;6.20;4.20;;;;;;;21.93;53.88;99766.31;4860801;29;20519;-43
2023/09/21 02:27:48;;;;;;;6.75;4.30;;;;;;;22.06;53.34;99769.22;4855218;29;20053;-46
2023/09/21 02:30:16;;;;;;;;;;;;;;;22.06;53.43;99768.41;4842824;29;20494;-45
2023/09/21 02:32:48;;;;;;;8.30;4.00;;;;;;;21.66;54.59;99756.69;4843515;29;19964;-47
2023/09/21 02:35:22;;;;;;;5.80;4.00;;;;;;;21.51;55.00;99770.25;4843374;29;20090;-45
2023/09/21 02:37:49;;;;;;;5.90;4.20;;;;;;;21.46;55.48;99771.91;4843355;29;20058;-42
2023/09/21 02:40:17;;;;;;;5.97;3.80;;;;;;;21.27;55.72;99776.25;4842147;29;20018;-47
2023/09/21 02:42:44;;;;;;;7.22;4.35;;;;;;;21.08;56.43;99778.72;4843847;29;20520;-46
2023/09/21 02:45:11;;;;;;;6.65;4.10;;;;;;;21.33;56.06;99771.66;4842908;29;20380;-46
2023/09/21 02:47:37;;;;;;;6.75;3.92;;;;;;;21.32;56.14;99775.41;4843422;29;20030;-43
2023/09/21 02:50:14;;;;;;;8.57;4.22;;;;;;;21.46;55.72;99776.53;4843444;29;20025;-43
2023/09/21 02:52:52;;;;;;;7.53;4.18;;;;;;;21.54;55.18;99772.44;4843576;29;20100;-44
2023/09/21 02:55:20;;;;;;;5.97;4.00;;;;;;;21.60;54.92;99774.03;4843543;29;20109;-44
2023/09/21 02:57:49;;;;;;;8.63;4.25;;;;;;;21.59;55.09;99762.41;4843196;29;20064;-44
2023/09/21 03:00:34;;;;;;;6.28;4.30;;;;;;;21.42;55.79;99772.72;4857276;29;20480;-44
2023/09/21 03:03:01;;;;;;;4.35;3.80;;;;;;;21.35;55.78;99774.88;4843312;29;20034;-44
2023/09/21 03:05:27;;;;;;;7.43;4.18;;;;;;;21.52;55.68;99770.00;4844622;29;20098;-45
2023/09/21 03:07:56;;;;;;;5.85;4.57;;;;;;;21.59;55.47;99783.22;4857152;29;20551;-44
2023/09/21 03:10:23;;;;;;;10.82;4.10;;;;;;;21.73;55.32;99780.75;4843976;29;20117;-46
2023/09/21 03:12:49;;;;;;;5.93;4.13;;;;;;;21.80;55.12;99781.25;4842969;29;20045;-43
2023/09/21 03:15:18;;;;;;;6.15;4.10;;;;;;;21.96;54.87;99793.66;4842678;29;20030;-43
2023/09/21 03:17:44;;;;;;;5.95;4.00;;;;;;;22.04;54.54;99801.19;4842870;29;20032;-44
2023/09/21 03:20:34;;;;;;;5.15;3.85;;;;;;;22.03;54.96;99804.22;4842759;29;20073;-46
2023/09/21 03:23:05;;;;;;;8.68;6.80;;;;;;;22.02;54.67;99792.53;4844221;29;20037;-45
2023/09/21 03:25:33;;;;;;;6.70;4.40;;;;;;;21.94;54.75;99800.44;4861399;29;20478;-44
2023/09/21 03:28:13;;;;;;;18.53;11.30;;;;;;;22.06;54.88;99798.22;4861103;29;20052;-43
2023/09/21 03:30:40;;;;;;;8.15;4.50;;;;;;;22.11;54.33;99797.41;4860964;29;20633;-42
2023/09/21 03:33:06;;;;;;;5.88;4.30;;;;;;;21.99;54.47;99795.81;4861069;29;20096;-45
2023/09/21 03:35:32;;;;;;;5.43;4.00;;;;;;;21.88;54.95;99788.84;4860684;29;20037;-43
2023/09/21 03:37:58;;;;;;;5.82;4.03;;;;;;;21.95;54.68;99791.22;4859029;29;20040;-46
2023/09/21 03:40:25;;;;;;;6.40;4.10;;;;;;;21.92;54.70;99799.94;4860112;29;20391;-45
2023/09/21 03:42:57;;;;;;;8.38;4.05;;;;;;;22.04;54.38;99797.69;4861015;29;20044;-46
2023/09/21 03:45:26;;;;;;;5.55;3.60;;;;;;;22.11;54.34;99806.34;4857246;29;20076;-46
2023/09/21 03:47:55;;;;;;;7.38;4.30;;;;;;;22.03;54.50;99793.38;4851668;29;20114;-46
2023/09/21 03:50:25;;;;;;;;;;;;;;;22.34;54.06;99794.03;4851398;29;20038;-43
2023/09/21 03:52:53;;;;;;;10.68;6.25;;;;;;;22.18;54.47;99798.72;4841984;29;19945;-43
2023/09/21 03:55:19;;;;;;;9.95;5.13;;;;;;;22.13;54.34;99790.59;4842226;29;20071;-45
2023/09/21 03:57:48;;;;;;;6.68;4.30;;;;;;;22.28;54.19;99795.16;4845940;29;20064;-44
2023/09/21 04:01:04;;;;;;;7.65;4.68;;;;;;;22.30;54.01;99792.97;4851146;29;20140;-40
2023/09/21 04:03:08;;;;;;;11.23;5.03;;;;;;;22.35;53.98;99795.66;4841918;29;20093;-38
2023/09/21 04:05:35;;;;;;;6.68;4.35;;;;;;;22.25;54.21;99801.13;4841878;29;20285;-38
2023/09/21 04:08:02;;;;;;;7.07;4.30;;;;;;;22.18;54.15;99787.88;4841496;29;20088;-38
2023/09/21 04:10:28;;;;;;;5.93;3.80;;;;;;;22.23;53.79;99792.44;4844181;29;20119;-39
2023/09/21 04:12:56;;;;;;;6.10;3.95;;;;;;;22.21;53.83;99789.22;4860343;29;20029;-38
2023/09/21 04:15:23;;;;;;;10.17;4.10;;;;;;;22.17;54.15;99785.44;4860760;29;20033;-40
2023/09/21 04:17:49;;;;;;;7.57;4.07;;;;;;;22.23;54.19;99792.44;4860585;29;20048;-39
2023/09/21 04:20:16;;;;;;;8.68;4.30;;;;;;;22.31;53.79;99791.06;4860439;29;20025;-41
2023/09/21 04:22:43;;;;;;;6.50;4.00;;;;;;;22.39;53.94;99795.91;4860173;29;20040;-39
2023/09/21 04:25:14;;;;;;;8.13;4.28;;;;;;;22.48;53.74;99802.34;4860650;29;20029;-41
2023/09/21 04:27:41;;;;;;;6.22;4.20;;;;;;;22.60;53.01;99800.13;4860364;29;20025;-42
2023/09/21 04:30:09;;;;;;;6.60;4.07;;;;;;;22.72;52.95;99804.38;4860358;29;20093;-39
2023/09/21 04:32:37;;;;;;;8.25;4.53;;;;;;;22.92;52.16;99801.47;4860325;29;20033;-40
2023/09/21 04:35:04;;;;;;;7.95;4.05;;;;;;;22.83;52.54;99804.00;4860332;29;20097;-41
2023/09/21 04:37:30;;;;;;;6.05;3.83;;;;;;;22.88;52.46;99803.16;4860319;29;20036;-39
2023/09/21 04:39:55;;;;;;;8.32;4.25;;;;;;;23.00;52.32;99800.88;4858553;29;20029;-41
2023/09/21 04:42:20;;;;;;;6.45;4.00;;;;;;;23.13;52.25;99799.47;4841851;29;20029;-40
2023/09/21 04:44:46;;;;;;;6.28;4.00;;;;;;;23.16;51.71;99789.91;4841733;29;20104;-40
2023/09/21 04:47:11;;;;;;;6.53;4.45;;;;;;;23.37;51.58;99798.69;4840757;29;20125;-40
2023/09/21 04:49:37;;;;;;;6.80;4.47;;;;;;;23.53;50.99;99791.16;4840840;29;20038;-40
2023/09/21 04:52:03;;;;;;;10.57;4.53;;;;;;;23.48;50.95;99791.25;4841153;29;20041;-41
2023/09/21 04:54:29;;;;;;;7.40;4.43;;;;;;;23.61;51.07;99785.91;4840877;29;20063;-42
2023/09/21 04:56:54;;;;;;;6.07;4.03;;;;;;;23.40;51.91;99792.69;4841303;29;20464;-40
2023/09/21 04:59:20;;;;;;;8.63;4.35;;;;;;;23.98;50.21;99789.84;4841025;29;20034;-41
2023/09/21 05:01:47;;;;;;;7.35;4.85;;;;;;;23.90;50.43;99800.56;4848551;29;20037;-40
2023/09/21 05:04:13;;;;;;;7.40;4.50;;;;;;;23.87;50.27;99799.22;4859561;29;20428;-41
2023/09/21 05:06:39;;;;;;;8.77;5.07;;;;;;;23.49;51.07;99795.56;4859610;29;20037;-41
2023/09/21 05:09:04;;;;;;;9.27;4.90;;;;;;;23.65;51.02;99793.50;4858441;29;20121;-40
2023/09/21 05:11:38;;;;;;;8.93;4.75;;;;;;;23.59;51.06;99796.28;4857974;29;20120;-39
2023/09/21 05:14:05;;;;;;;7.90;4.90;;;;;;;23.43;51.80;99798.31;4858530;29;20026;-42
2023/09/21 05:16:32;;;;;;;84.70;52.97;;;;;;;23.24;52.57;99783.88;4858343;29;20163;-39
2023/09/21 05:18:57;;;;;;;24.33;15.38;;;;;;;23.09;53.10;99789.44;4858913;29;20033;-40
2023/09/21 05:21:23;;;;;;;10.23;5.20;;;;;;;23.15;53.08;99793.72;4858447;29;20037;-41
2023/09/21 05:23:48;;;;;;;6.00;4.85;;;;;;;23.10;53.04;99794.59;4859529;29;20030;-41
2023/09/21 05:26:14;;;;;;;9.20;4.88;;;;;;;23.11;54.03;99792.69;4859773;29;20032;-41
2023/09/21 05:28:39;;;;;;;6.20;4.97;;;;;;;23.24;52.97;99797.44;4858864;29;20059;-41
2023/09/21 05:31:05;;;;;;;9.82;4.80;;;;;;;23.15;53.10;99808.13;4858620;29;20032;-43
2023/09/21 05:33:30;;;;;;;6.57;4.93;;;;;;;23.45;51.98;99799.94;4856753;29;20033;-39
2023/09/21 05:35:56;;;;;;;8.90;4.80;;;;;;;23.40;52.40;99803.53;4858393;29;20125;-40
2023/09/21 05:38:22;;;;;;;9.57;5.50;;;;;;;23.17;52.67;99811.34;4857785;29;20043;-40
2023/09/21 05:40:48;;;;;;;7.35;5.30;;;;;;;23.35;52.19;99814.44;4858645;29;20029;-40
2023/09/21 05:43:15;;;;;;;9.02;5.18;;;;;;;23.24;52.51;99827.28;4858635;29;20554;-39
2023/09/21 05:45:40;;;;;;;8.00;4.85;;;;;;;23.19;52.88;99830.06;4843035;29;20194;-42
2023/09/21 05:48:14;;;;;;;8.38;5.00;;;;;;;23.39;52.32;99831.78;4840144;29;20037;-39
2023/09/21 05:50:41;;;;;;;7.68;4.97;;;;;;;23.48;52.23;99823.81;4847294;29;20522;-41
2023/09/21 05:53:07;;;;;;;10.27;5.00;;;;;;;23.59;51.92;99831.56;4858213;29;20033;-45
2023/09/21 05:55:32;;;;;;;9.40;5.13;;;;;;;23.43;52.10;99828.19;4857314;29;20521;-41
2023/09/21 05:57:58;;;;;;;10.77;4.55;;;;;;;23.37;52.45;99832.06;4842459;29;20030;-42
2023/09/21 06:00:23;;;;;;;12.80;5.65;;;;;;;23.17;52.89;99832.25;4842137;29;20057;-40
2023/09/21 06:02:48;;;;;;;11.27;6.10;;;;;;;23.17;53.07;99834.94;4841979;29;20030;-41
2023/09/21 06:05:14;;;;;;;16.90;6.70;;;;;;;23.19;53.10;99839.03;4843304;29;20041;-40
2023/09/21 06:07:39;;;;;;;10.80;5.85;;;;;;;23.49;52.61;99839.00;4843098;29;20089;-41
2023/09/21 06:10:06;;;;;;;10.45;5.35;;;;;;;23.64;51.75;99841.56;4842666;29;20037;-40
2023/09/21 06:12:32;;;;;;;9.40;5.18;;;;;;;23.57;52.40;99831.06;4842347;29;20480;-41
2023/09/21 06:14:58;;;;;;;9.13;5.43;;;;;;;23.36;52.80;99830.47;4842360;29;20036;-40
2023/09/21 06:17:24;;;;;;;5.78;4.40;;;;;;;23.57;52.41;99828.34;4842668;29;20093;-40
2023/09/21 06:19:52;;;;;;;7.75;5.40;;;;;;;23.80;52.12;99829.47;4842203;29;20067;-41
2023/09/21 06:22:17;;;;;;;11.10;5.88;;;;;;;23.72;52.10;99830.09;4842569;29;20041;-40
2023/09/21 06:24:43;;;;;;;7.63;5.72;;;;;;;23.36;52.67;99827.75;4842733;29;20416;-40
2023/09/21 06:27:08;;;;;;;11.13;5.78;;;;;;;23.13;53.57;99829.31;4841754;29;20034;-41
2023/09/21 06:29:34;;;;;;;8.57;5.55;;;;;;;23.36;53.20;99826.91;4841443;29;20060;-42
2023/09/21 06:32:00;;;;;;;9.38;5.78;;;;;;;23.33;53.05;99832.94;4840771;29;20416;-40
2023/09/21 06:34:26;;;;;;;9.43;5.40;;;;;;;23.40;53.08;99836.94;4842636;29;20056;-42
2023/09/21 06:36:56;;;;;;;8.85;5.30;;;;;;;23.52;52.95;99838.44;4842058;29;20567;-41
2023/09/21 06:39:21;;;;;;;12.25;5.22;;;;;;;23.53;52.59;99826.47;4841867;29;20082;-40
2023/09/21 06:41:47;;;;;;;10.38;4.95;;;;;;;23.58;52.80;99827.22;4842047;29;20029;-41
2023/09/21 06:44:14;;;;;;;9.50;5.15;;;;;;;23.26;53.88;99827.81;4842290;29;20038;-39
2023/09/21 06:46:40;;;;;;;8.68;5.40;;;;;;;23.23;53.96;99826.50;4842361;29;20124;-41
2023/09/21 06:49:06;;;;;;;9.02;5.07;;;;;;;22.86;54.82;99828.94;4841990;29;20542;-38
2023/09/21 06:51:31;;;;;;;10.55;4.65;;;;;;;23.26;54.04;99829.72;4842319;29;20033;-40
2023/09/21 06:54:00;;;;;;;9.65;5.68;;;;;;;23.73;52.62;99830.88;4842326;29;20041;-40
2023/09/21 06:56:31;;;;;;;7.43;5.20;;;;;;;23.78;52.64;99826.25;4842266;29;20037;-41
2023/09/21 06:58:57;;;;;;;8.32;5.30;;;;;;;23.60;53.23;99829.66;4842576;29;20116;-42
2023/09/21 07:01:22;;;;;;;8.15;5.30;;;;;;;23.79;53.12;99833.28;4840932;29;20162;-41
2023/09/21 07:03:48;;;;;;;8.13;5.45;;;;;;;24.10;52.04;99838.34;4842558;29;20026;-39
2023/09/21 07:06:19;;;;;;;11.63;5.80;;;;;;;24.11;51.95;99831.81;4842881;29;20116;-40
2023/09/21 07:08:46;;;;;;;9.70;5.53;;;;;;;24.32;51.57;99842.44;4842380;29;20084;-41
2023/09/21 07:11:12;;;;;;;9.95;5.65;;;;;;;24.38;51.28;99836.63;4841715;29;20456;-40
2023/09/21 07:13:38;;;;;;;8.40;5.80;;;;;;;24.28;51.49;99835.97;4842646;29;20044;-41
2023/09/21 07:16:03;;;;;;;9.98;5.80;;;;;;;24.34;51.80;99834.78;4842332;29;20026;-42
2023/09/21 07:18:29;;;;;;;9.10;5.60;;;;;;;24.29;51.64;99838.38;4842395;29;20034;-43
2023/09/21 07:20:54;;;;;;;8.38;5.50;;;;;;;24.44;51.41;99836.56;4841958;29;20375;-44
2023/09/21 07:23:20;;;;;;;8.38;5.50;;;;;;;24.56;51.26;99837.78;4841997;29;20146;-42
2023/09/21 07:25:45;;;;;;;7.40;5.60;;;;;;;24.17;52.17;99832.56;4841706;29;20424;-40
2023/09/21 07:28:11;;;;;;;8.90;5.80;;;;;;;24.35;51.94;99836.38;4842293;29;20142;-41
2023/09/21 07:30:36;;;;;;;10.32;5.50;;;;;;;24.24;51.75;99830.31;4842380;29;20086;-41
2023/09/21 07:33:02;;;;;;;7.25;4.93;;;;;;;24.34;52.05;99840.22;4841986;29;20034;-42
2023/09/21 07:35:28;;;;;;;7.45;4.70;;;;;;;24.36;51.79;99832.59;4842032;29;20052;-40
2023/09/21 07:37:53;;;;;;;8.25;5.43;;;;;;;24.34;51.12;99837.50;4841873;29;20497;-42
2023/09/21 07:40:21;;;;;;;7.45;5.40;;;;;;;24.18;51.89;99851.31;4841682;29;20468;-41
2023/09/21 07:42:49;;;;;;;7.57;5.38;;;;;;;24.64;51.20;99840.94;4841998;29;20120;-42
2023/09/21 07:45:15;;;;;;;10.25;5.32;;;;;;;25.08;49.55;99850.59;4842127;29;20084;-41
2023/09/21 07:47:41;;;;;;;6.10;4.68;;;;;;;25.29;49.24;99854.59;4841839;29;20034;-42
2023/09/21 07:50:07;;;;;;;7.22;4.30;;;;;;;25.33;49.48;99852.88;4841653;29;20041;-42
2023/09/21 07:52:34;;;;;;;8.40;5.20;;;;;;;25.51;48.37;99851.22;4841653;29;20025;-41
2023/09/21 07:55:02;;;;;;;7.68;4.80;;;;;;;25.55;48.39;99854.13;4841727;29;20526;-44
2023/09/21 07:57:31;;;;;;;7.10;5.03;;;;;;;25.78;47.60;99837.91;4855610;29;20404;-43
2023/09/21 07:59:56;;;;;;;6.78;4.72;;;;;;;25.94;47.56;99834.59;4841898;29;20069;-40
2023/09/21 08:02:22;;;;;;;8.05;4.95;;;;;;;26.13;47.34;99842.66;4842239;29;20050;-42
2023/09/21 08:04:48;;;;;;;6.35;4.45;;;;;;;26.33;47.13;99841.44;4841957;29;20041;-40
2023/09/21 08:07:14;;;;;;;6.90;4.30;;;;;;;26.57;46.68;99831.38;4841592;29;20510;-42
2023/09/21 08:09:39;;;;;;;6.88;5.05;;;;;;;26.72;46.04;99831.84;4842050;29;20034;-40
2023/09/21 08:12:05;;;;;;;9.57;5.22;;;;;;;26.75;45.26;99815.97;4841761;29;20033;-40
2023/09/21 08:14:32;;;;;;;8.45;5.10;;;;;;;26.97;44.80;99826.09;4841457;29;20125;-40
2023/09/21 08:16:59;;;;;;;7.97;4.95;;;;;;;26.52;45.45;99826.81;4846675;29;20090;-40
2023/09/21 08:19:24;;;;;;;6.10;4.57;;;;;;;26.46;45.56;99831.59;4859355;29;20132;-41
2023/09/21 08:21:50;;;;;;;6.97;4.95;;;;;;;26.51;45.66;99831.47;4858513;29;20037;-41
2023/09/21 08:24:15;;;;;;;6.75;4.70;;;;;;;26.69;45.81;99828.91;4859789;29;20029;-43
2023/09/21 08:26:41;;;;;;;6.40;4.65;;;;;;;26.94;45.53;99823.97;4859483;29;20417;-40
2023/09/21 08:29:07;;;;;;;7.53;4.53;;;;;;;27.03;44.85;99828.34;4859308;29;20033;-44
2023/09/21 08:31:33;;;;;;;6.80;4.72;;;;;;;27.22;44.23;99830.88;4859501;29;20053;-41
2023/09/21 08:33:59;;;;;;;9.27;4.90;;;;;;;27.43;43.88;99825.72;4858964;29;20517;-43
2023/09/21 08:36:25;;;;;;;11.43;4.07;;;;;;;27.74;43.33;99833.09;4858788;29;20124;-42
2023/09/21 08:38:52;;;;;;;6.55;4.05;;;;;;;27.57;42.99;99831.09;4859378;29;20029;-42
2023/09/21 08:41:18;;;;;;;6.18;4.05;;;;;;;27.55;42.57;99825.16;4859108;29;20521;-42
2023/09/21 08:43:44;;;;;;;6.65;4.43;;;;;;;27.67;41.98;99828.09;4858977;29;20025;-44
2023/09/21 08:46:11;;;;;;;5.60;3.90;;;;;;;27.37;42.32;99813.31;4858923;29;20029;-41
2023/09/21 08:48:39;;;;;;;8.20;3.88;;;;;;;27.27;43.52;99817.13;4858432;29;20034;-41
2023/09/21 08:51:09;;;;;;;8.15;3.90;;;;;;;27.04;43.40;99821.78;4859136;29;20112;-42
2023/09/21 08:53:35;;;;;;;5.53;3.80;;;;;;;27.38;43.46;99816.84;4858953;29;20105;-41
2023/09/21 08:56:02;;;;;;;6.88;4.05;;;;;;;27.72;42.17;99812.66;4858632;29;20132;-44
2023/09/21 08:58:33;;;;;;;4.88;3.58;;;;;;;27.93;42.40;99811.00;4859018;29;20048;-44
2023/09/21 09:00:59;;;;;;;11.32;4.32;;;;;;;28.06;41.42;99814.72;4858336;29;20403;-43
2023/09/21 09:03:25;;;;;;;8.77;4.18;;;;;;;27.91;41.95;99810.47;4858853;29;20073;-40
2023/09/21 09:05:55;;;;;;;7.65;3.47;;;;;;;27.91;42.51;99802.28;4858624;29;20549;-43
2023/09/21 09:08:21;;;;;;;5.45;3.47;;;;;;;28.13;40.86;99800.56;4857419;29;20029;-43
2023/09/21 09:10:46;;;;;;;5.32;3.35;;;;;;;28.53;40.90;99800.47;4859100;29;20029;-43
2023/09/21 09:13:12;;;;;;;7.07;3.55;;;;;;;29.08;40.45;99805.22;4858843;29;20555;-42
2023/09/21 09:15:38;;;;;;;4.72;3.45;;;;;;;29.15;39.34;99811.03;4858554;29;20017;-40
2023/09/21 09:18:05;;;;;;;6.10;3.55;;;;;;;29.03;39.38;99800.75;4858768;29;20045;-43
2023/09/21 09:20:32;;;;;;;6.45;3.63;;;;;;;29.46;38.95;99799.00;4858403;29;20036;-43
2023/09/21 09:23:00;;;;;;;5.93;3.22;;;;;;;29.78;38.43;99799.53;4858359;29;20038;-44
2023/09/21 09:25:26;;;;;;;7.70;3.55;;;;;;;30.39;37.46;99799.16;4858862;29;20147;-45
2023/09/21 09:27:51;;;;;;;6.32;3.60;;;;;;;30.06;37.37;99799.84;4858580;29;20463;-43
2023/09/21 09:30:20;;;;;;;5.72;3.42;;;;;;;30.42;36.87;99794.94;4858255;29;20427;-42
2023/09/21 09:32:47;;;;;;;4.68;3.15;;;;;;;30.82;36.04;99792.47;4858102;29;20026;-45
2023/09/21 09:35:13;;;;;;;5.75;3.45;;;;;;;30.88;35.13;99784.81;4858809;29;20057;-44
2023/09/21 09:37:47;;;;;;;5.97;3.33;;;;;;;30.40;36.63;99787.03;4858372;29;20153;-43
2023/09/21 09:40:13;;;;;;;6.82;3.45;;;;;;;31.16;35.27;99780.31;4857978;29;20021;-43
2023/09/21 09:42:45;;;;;;;5.15;3.75;;;;;;;30.62;34.87;99788.63;4857980;29;20556;-42
2023/09/21 09:45:24;;;;;;;6.03;3.83;;;;;;;30.78;35.17;99783.31;4846552;29;20030;-44
2023/09/21 09:47:56;;;;;;;6.93;3.90;;;;;;;30.72;35.03;99777.22;4839979;29;20042;-41
2023/09/21 09:50:26;;;;;;;6.80;3.80;;;;;;;30.71;35.87;99777.53;4839787;29;20034;-46
2023/09/21 09:53:02;;;;;;;6.05;3.45;;;;;;;31.36;35.15;99777.84;4839978;29;20045;-41
2023/09/21 09:55:32;;;;;;;5.82;3.50;;;;;;;31.46;33.81;99780.16;4839768;29;20034;-44
2023/09/21 09:57:59;;;;;;;5.13;3.65;;;;;;;31.58;33.90;99773.06;4839936;29;20065;-45
2023/09/21 10:00:29;;;;;;;5.63;3.42;;;;;;;31.12;33.89;99751.94;4839763;29;20057;-45
2023/09/21 10:02:58;;;;;;;6.32;3.60;;;;;;;31.44;34.24;99765.13;4839907;29;20555;-43
2023/09/21 10:05:27;;;;;;;;;;;;;;;31.52;33.66;99759.53;4840395;29;20105;-42
2023/09/21 10:08:07;;;;;;;6.18;3.40;;;;;;;31.73;33.89;99753.91;4839790;29;19999;-42
2023/09/21 10:10:55;;;;;;;9.30;3.55;;;;;;;32.25;33.13;99752.34;4839258;29;20034;-42
2023/09/21 10:13:25;;;;;;;7.35;3.17;;;;;;;32.78;32.73;99752.25;4839327;29;20030;-42
2023/09/21 10:16:05;;;;;;;5.63;3.55;;;;;;;32.49;32.37;99742.38;4839538;29;20472;-43
2023/09/21 10:18:37;;;;;;;5.72;3.85;;;;;;;32.46;31.94;99737.56;4839642;29;20490;-43
2023/09/21 10:21:31;;;;;;;4.80;3.50;;;;;;;32.63;32.29;99739.25;4839597;29;20034;-43
2023/09/21 10:23:59;;;;;;;5.82;3.80;;;;;;;32.84;32.11;99742.59;4839487;29;20030;-45
2023/09/21 10:26:25;;;;;;;5.00;3.70;;;;;;;32.91;32.46;99741.97;4839116;29;20114;-43
2023/09/21 10:28:51;;;;;;;8.70;3.95;;;;;;;33.18;32.19;99740.31;4839552;29;20298;-42
2023/09/21 10:31:22;;;;;;;6.57;4.13;;;;;;;32.67;31.80;99729.13;4839251;29;20431;-44
2023/09/21 10:34:09;;;;;;;5.57;3.80;;;;;;;32.00;33.36;99724.06;4839553;29;20042;-45
2023/09/21 10:36:38;;;;;;;5.63;3.72;;;;;;;32.17;33.46;99728.50;4839059;29;20042;-43
2023/09/21 10:39:06;;;;;;;7.35;3.78;;;;;;;32.56;33.24;99717.81;4838784;29;20044;-41
2023/09/21 10:41:33;;;;;;;6.05;3.63;;;;;;;33.15;32.09;99712.66;4839048;29;20558;-43
2023/09/21 10:44:02;;;;;;;5.80;3.55;;;;;;;33.77;31.19;99715.69;4838455;29;20416;-46
2023/09/21 10:46:31;;;;;;;4.63;3.60;;;;;;;33.79;31.30;99710.63;4841284;29;20131;-47
2023/09/21 10:49:18;;;;;;;9.57;3.55;;;;;;;34.35;30.50;99698.38;4841922;29;20529;-43
2023/09/21 10:51:46;;;;;;;6.50;4.00;;;;;;;34.49;30.07;99686.81;4842009;29;20034;-46
2023/09/21 10:54:11;;;;;;;9.60;3.90;;;;;;;34.57;30.15;99686.56;4842043;29;20037;-43
2023/09/21 10:56:37;;;;;;;6.00;3.67;;;;;;;34.61;29.73;99679.13;4842766;29;20042;-43
2023/09/21 10:59:03;;;;;;;5.07;3.60;;;;;;;35.04;29.21;99679.09;4842052;29;20476;-43
2023/09/21 11:01:29;;;;;;;6.38;4.00;;;;;;;33.29;31.18;99680.72;4842182;29;20072;-44
2023/09/21 11:03:55;;;;;;;6.25;3.90;;;;;;;32.57;31.91;99675.34;4855449;29;20076;-41
2023/09/21 11:06:20;;;;;;;5.53;3.78;;;;;;;32.15;32.58;99668.31;4857618;29;20513;-47
2023/09/21 11:08:49;;;;;;;5.78;4.13;;;;;;;32.23;32.24;99671.25;4861186;29;20485;-44
2023/09/21 11:11:16;;;;;;;6.07;3.80;;;;;;;32.40;31.76;99664.66;4861265;29;20033;-42
2023/09/21 11:13:42;;;;;;;6.28;3.75;;;;;;;32.29;32.15;99653.34;4861326;29;20029;-41
2023/09/21 11:16:13;;;;;;;4.95;3.70;;;;;;;32.53;32.44;99647.69;4861233;29;20036;-42
2023/09/21 11:18:39;;;;;;;7.93;4.32;;;;;;;32.06;32.39;99648.41;4861271;29;20120;-43
2023/09/21 11:21:08;;;;;;;5.80;3.80;;;;;;;31.45;34.31;99641.06;4860886;29;20094;-42
2023/09/21 11:23:35;;;;;;;8.85;4.20;;;;;;;31.82;33.13;99637.47;4852216;29;20195;-40
2023/09/21 11:26:01;;;;;;;8.05;4.28;;;;;;;32.05;33.25;99637.75;4856312;29;20029;-40
2023/09/21 11:28:27;;;;;;;7.15;4.03;;;;;;;32.13;33.18;99629.31;4860857;29;20060;-41
2023/09/21 11:30:54;;;;;;;6.05;3.72;;;;;;;32.23;33.16;99627.22;4860404;29;20448;-42
2023/09/21 11:33:20;;;;;;;9.85;4.05;;;;;;;31.88;33.37;99627.81;4855413;29;20078;-43
2023/09/21 11:35:45;;;;;;;9.63;4.13;;;;;;;32.94;32.00;99631.03;4851718;29;20033;-47
2023/09/21 11:38:12;;;;;;;6.05;4.05;;;;;;;31.97;33.72;99622.97;4851683;29;20403;-42